sensor_id;sensor_type;location;lat;lon;timestamp;temperature;humidity
8947;DHT22;4508;48.790;9.028;2023-03-02T00:01:37;-0.30;99.90
8947;DHT22;4508;48.790;9.028;2023-03-02T00:04:04;-0.30;99.90
8947;DHT22;4508;48.790;9.028;2023-03-02T00:06:31;-0.40;99.90
8947;DHT22;4508;48.790;9.028;2023-03-02T00:09:01;-0.30;99.90
8947;DHT22;4508;48.790;9.028;2023-03-02T00:11:30;-0.30;99.90
8947;DHT22;4508;48.790;9.028;2023-03-02T00:13:57;-0.20;99.90
8947;DHT22;4508;48.790;9.028;2023-03-02T00:16:24;-0.10;99.90
8947;DHT22;4508;48.790;9.028;2023-03-02T00:18:51;-0.10;99.90
8947;DHT22;4508;48.790;9.028;2023-03-02T00:21:17;0.00;99.90
8947;DHT22;4508;48.790;9.028;2023-03-02T00:23:44;-0.20;99.90
8947;DHT22;4508;48.790;9.028;2023-03-02T00:26:12;-0.10;99.90
8947;DHT22;4508;48.790;9.028;2023-03-02T00:28:38;-0.30;99.90
8947;DHT22;4508;48.790;9.028;2023-03-02T00:31:05;-0.20;99.90
8947;DHT22;4508;48.790;9.028;2023-03-02T00:33:32;-0.20;99.90
8947;DHT22;4508;48.790;9.028;2023-03-02T00:35:59;-0.20;99.90
8947;DHT22;4508;48.790;9.028;2023-03-02T00:38:25;-0.30;99.90
8947;DHT22;4508;48.790;9.028;2023-03-02T00:40:53;-0.30;99.90
8947;DHT22;4508;48.790;9.028;2023-03-02T00:43:21;-0.30;99.90
8947;DHT22;4508;48.790;9.028;2023-03-02T00:45:52;-0.30;99.90
8947;DHT22;4508;48.790;9.028;2023-03-02T00:48:18;-0.40;99.90
8947;DHT22;4508;48.790;9.028;2023-03-02T00:50:45;-0.30;99.90
8947;DHT22;4508;48.790;9.028;2023-03-02T00:53:11;-0.40;99.90
8947;DHT22;4508;48.790;9.028;2023-03-02T00:55:38;-0.30;99.90
8947;DHT22;4508;48.790;9.028;2023-03-02T00:58:04;-0.30;99.90
8947;DHT22;4508;48.790;9.028;2023-03-02T01:00:32;-0.40;99.90
8947;DHT22;4508;48.790;9.028;2023-03-02T01:03:00;-0.40;99.90
8947;DHT22;4508;48.790;9.028;2023-03-02T01:05:26;-0.40;99.90
8947;DHT22;4508;48.790;9.028;2023-03-02T01:07:53;-0.50;99.90
8947;DHT22;4508;48.790;9.028;2023-03-02T01:10:19;-0.50;99.90
8947;DHT22;4508;48.790;9.028;2023-03-02T01:12:46;-0.40;99.90
8947;DHT22;4508;48.790;9.028;2023-03-02T01:15:12;-0.40;99.90
8947;DHT22;4508;48.790;9.028;2023-03-02T01:17:40;-0.50;99.90
8947;DHT22;4508;48.790;9.028;2023-03-02T01:20:08;-0.50;99.90
8947;DHT22;4508;48.790;9.028;2023-03-02T01:22:35;-0.60;99.90
8947;DHT22;4508;48.790;9.028;2023-03-02T01:25:02;-0.60;99.90
8947;DHT22;4508;48.790;9.028;2023-03-02T01:27:29;-0.60;99.90
8947;DHT22;4508;48.790;9.028;2023-03-02T01:29:55;-0.70;99.90
8947;DHT22;4508;48.790;9.028;2023-03-02T01:32:22;-0.60;99.90
8947;DHT22;4508;48.790;9.028;2023-03-02T01:34:49;-0.60;99.90
8947;DHT22;4508;48.790;9.028;2023-03-02T01:37:16;-0.70;99.90
8947;DHT22;4508;48.790;9.028;2023-03-02T01:39:42;-0.70;99.90
8947;DHT22;4508;48.790;9.028;2023-03-02T01:42:09;-0.70;99.90
8947;DHT22;4508;48.790;9.028;2023-03-02T01:44:40;-0.80;99.90
8947;DHT22;4508;48.790;9.028;2023-03-02T01:47:11;-0.80;99.90
8947;DHT22;4508;48.790;9.028;2023-03-02T01:49:40;-0.80;99.90
8947;DHT22;4508;48.790;9.028;2023-03-02T01:52:08;-0.90;99.90
8947;DHT22;4508;48.790;9.028;2023-03-02T01:54:36;-0.80;99.90
8947;DHT22;4508;48.790;9.028;2023-03-02T01:57:03;-0.90;99.90
8947;DHT22;4508;48.790;9.028;2023-03-02T01:59:32;-0.90;99.90
8947;DHT22;4508;48.790;9.028;2023-03-02T02:01:59;-0.80;99.90
8947;DHT22;4508;48.790;9.028;2023-03-02T02:04:27;-0.90;99.90
8947;DHT22;4508;48.790;9.028;2023-03-02T02:06:55;-0.90;99.90
8947;DHT22;4508;48.790;9.028;2023-03-02T02:09:24;-0.80;99.90
8947;DHT22;4508;48.790;9.028;2023-03-02T02:11:52;-0.90;99.90
8947;DHT22;4508;48.790;9.028;2023-03-02T02:14:18;-0.80;99.90
8947;DHT22;4508;48.790;9.028;2023-03-02T02:16:45;-0.80;99.90
8947;DHT22;4508;48.790;9.028;2023-03-02T02:19:14;-0.80;99.90
8947;DHT22;4508;48.790;9.028;2023-03-02T02:21:43;-0.80;99.90
8947;DHT22;4508;48.790;9.028;2023-03-02T02:24:11;-0.80;99.90
8947;DHT22;4508;48.790;9.028;2023-03-02T02:26:41;-0.80;99.90
8947;DHT22;4508;48.790;9.028;2023-03-02T02:29:09;-0.80;99.90
8947;DHT22;4508;48.790;9.028;2023-03-02T02:31:39;-0.90;99.90
8947;DHT22;4508;48.790;9.028;2023-03-02T02:34:09;-0.90;99.90
8947;DHT22;4508;48.790;9.028;2023-03-02T02:36:37;-0.90;99.90
8947;DHT22;4508;48.790;9.028;2023-03-02T02:39:06;-1.00;99.90
8947;DHT22;4508;48.790;9.028;2023-03-02T02:41:34;-1.00;99.90
8947;DHT22;4508;48.790;9.028;2023-03-02T02:44:04;-0.90;99.90
8947;DHT22;4508;48.790;9.028;2023-03-02T02:46:31;-1.00;99.90
8947;DHT22;4508;48.790;9.028;2023-03-02T02:48:57;-1.00;99.90
8947;DHT22;4508;48.790;9.028;2023-03-02T02:51:25;-0.90;99.90
8947;DHT22;4508;48.790;9.028;2023-03-02T02:53:52;-0.90;99.90
8947;DHT22;4508;48.790;9.028;2023-03-02T02:56:23;-0.90;99.90
8947;DHT22;4508;48.790;9.028;2023-03-02T02:58:50;-0.90;99.90
8947;DHT22;4508;48.790;9.028;2023-03-02T03:01:20;-1.00;99.90
8947;DHT22;4508;48.790;9.028;2023-03-02T03:03:51;-1.00;99.90
8947;DHT22;4508;48.790;9.028;2023-03-02T03:06:19;-1.00;99.90
8947;DHT22;4508;48.790;9.028;2023-03-02T03:08:54;-1.00;99.90
8947;DHT22;4508;48.790;9.028;2023-03-02T03:11:21;-1.10;99.90
8947;DHT22;4508;48.790;9.028;2023-03-02T03:13:50;-1.10;99.90
8947;DHT22;4508;48.790;9.028;2023-03-02T03:16:17;-1.10;99.90
8947;DHT22;4508;48.790;9.028;2023-03-02T03:18:45;-1.10;99.90
8947;DHT22;4508;48.790;9.028;2023-03-02T03:21:13;-1.20;99.90
8947;DHT22;4508;48.790;9.028;2023-03-02T03:23:42;-1.10;99.90
8947;DHT22;4508;48.790;9.028;2023-03-02T03:26:09;-1.20;99.90
8947;DHT22;4508;48.790;9.028;2023-03-02T03:28:35;-1.30;99.90
8947;DHT22;4508;48.790;9.028;2023-03-02T03:31:02;-1.30;99.90
8947;DHT22;4508;48.790;9.028;2023-03-02T03:33:28;-1.40;99.90
8947;DHT22;4508;48.790;9.028;2023-03-02T03:35:56;-1.30;99.90
8947;DHT22;4508;48.790;9.028;2023-03-02T03:38:25;-1.30;99.90
8947;DHT22;4508;48.790;9.028;2023-03-02T03:40:51;-1.30;99.90
8947;DHT22;4508;48.790;9.028;2023-03-02T03:43:18;-1.30;99.90
8947;DHT22;4508;48.790;9.028;2023-03-02T03:45:44;-1.40;99.90
8947;DHT22;4508;48.790;9.028;2023-03-02T03:48:11;-1.30;99.90
8947;DHT22;4508;48.790;9.028;2023-03-02T03:50:37;-1.30;99.90
8947;DHT22;4508;48.790;9.028;2023-03-02T03:53:05;-1.40;99.90
8947;DHT22;4508;48.790;9.028;2023-03-02T03:55:32;-1.40;99.90
8947;DHT22;4508;48.790;9.028;2023-03-02T03:57:58;-1.50;99.90
8947;DHT22;4508;48.790;9.028;2023-03-02T04:00:25;-1.50;99.90
8947;DHT22;4508;48.790;9.028;2023-03-02T04:02:51;-1.50;99.90
8947;DHT22;4508;48.790;9.028;2023-03-02T04:05:18;-1.60;99.90
8947;DHT22;4508;48.790;9.028;2023-03-02T04:07:45;-1.60;99.90
8947;DHT22;4508;48.790;9.028;2023-03-02T04:10:13;-1.60;99.90
8947;DHT22;4508;48.790;9.028;2023-03-02T04:12:39;-1.70;99.90
8947;DHT22;4508;48.790;9.028;2023-03-02T04:15:07;-1.70;99.90
8947;DHT22;4508;48.790;9.028;2023-03-02T04:17:33;-1.60;99.90
8947;DHT22;4508;48.790;9.028;2023-03-02T04:20:00;-1.60;99.90
8947;DHT22;4508;48.790;9.028;2023-03-02T04:22:29;-1.60;99.90
8947;DHT22;4508;48.790;9.028;2023-03-02T04:24:56;-1.60;99.90
8947;DHT22;4508;48.790;9.028;2023-03-02T04:27:24;-1.50;99.90
8947;DHT22;4508;48.790;9.028;2023-03-02T04:29:50;-1.50;99.90
8947;DHT22;4508;48.790;9.028;2023-03-02T04:32:17;-1.50;99.90
8947;DHT22;4508;48.790;9.028;2023-03-02T04:34:44;-1.60;99.90
8947;DHT22;4508;48.790;9.028;2023-03-02T04:37:11;-1.60;99.90
8947;DHT22;4508;48.790;9.028;2023-03-02T04:39:37;-1.60;99.90
8947;DHT22;4508;48.790;9.028;2023-03-02T04:42:04;-1.60;99.90
8947;DHT22;4508;48.790;9.028;2023-03-02T04:44:32;-1.50;99.90
8947;DHT22;4508;48.790;9.028;2023-03-02T04:46:58;-1.50;99.90
8947;DHT22;4508;48.790;9.028;2023-03-02T04:49:25;-1.50;99.90
8947;DHT22;4508;48.790;9.028;2023-03-02T04:51:51;-1.60;99.90
8947;DHT22;4508;48.790;9.028;2023-03-02T04:54:18;-1.60;99.90
8947;DHT22;4508;48.790;9.028;2023-03-02T04:56:46;-1.60;99.90
8947;DHT22;4508;48.790;9.028;2023-03-02T04:59:13;-1.60;99.90
8947;DHT22;4508;48.790;9.028;2023-03-02T05:01:41;-1.60;99.90
8947;DHT22;4508;48.790;9.028;2023-03-02T05:04:09;-1.70;99.90
8947;DHT22;4508;48.790;9.028;2023-03-02T05:06:35;-1.70;99.90
8947;DHT22;4508;48.790;9.028;2023-03-02T05:09:02;-1.70;99.90
8947;DHT22;4508;48.790;9.028;2023-03-02T05:11:29;-1.70;99.90
8947;DHT22;4508;48.790;9.028;2023-03-02T05:13:56;-1.70;99.90
8947;DHT22;4508;48.790;9.028;2023-03-02T05:16:24;-1.80;99.90
8947;DHT22;4508;48.790;9.028;2023-03-02T05:18:52;-1.80;99.90
8947;DHT22;4508;48.790;9.028;2023-03-02T05:21:18;-1.70;99.90
8947;DHT22;4508;48.790;9.028;2023-03-02T05:23:45;-1.70;99.90
8947;DHT22;4508;48.790;9.028;2023-03-02T05:26:12;-1.70;99.90
8947;DHT22;4508;48.790;9.028;2023-03-02T05:28:39;-1.60;99.90
8947;DHT22;4508;48.790;9.028;2023-03-02T05:31:06;-1.60;99.90
8947;DHT22;4508;48.790;9.028;2023-03-02T05:33:33;-1.50;99.90
8947;DHT22;4508;48.790;9.028;2023-03-02T05:36:00;-1.60;99.90
8947;DHT22;4508;48.790;9.028;2023-03-02T05:38:27;-1.50;99.90
8947;DHT22;4508;48.790;9.028;2023-03-02T05:40:55;-1.40;99.90
8947;DHT22;4508;48.790;9.028;2023-03-02T05:43:22;-1.20;99.90
8947;DHT22;4508;48.790;9.028;2023-03-02T05:45:48;-1.40;99.90
8947;DHT22;4508;48.790;9.028;2023-03-02T05:48:15;-1.30;99.90
8947;DHT22;4508;48.790;9.028;2023-03-02T05:50:42;-1.30;99.90
8947;DHT22;4508;48.790;9.028;2023-03-02T05:53:10;-1.20;99.90
8947;DHT22;4508;48.790;9.028;2023-03-02T05:55:36;-1.20;99.90
8947;DHT22;4508;48.790;9.028;2023-03-02T05:58:03;-1.10;99.90
8947;DHT22;4508;48.790;9.028;2023-03-02T06:00:30;-1.00;99.90
8947;DHT22;4508;48.790;9.028;2023-03-02T06:02:56;-1.10;99.90
8947;DHT22;4508;48.790;9.028;2023-03-02T06:05:23;-1.10;99.90
8947;DHT22;4508;48.790;9.028;2023-03-02T06:07:49;-1.10;99.90
8947;DHT22;4508;48.790;9.028;2023-03-02T06:10:17;-1.00;99.90
8947;DHT22;4508;48.790;9.028;2023-03-02T06:12:44;-1.00;99.90
8947;DHT22;4508;48.790;9.028;2023-03-02T06:15:10;-0.90;99.90
8947;DHT22;4508;48.790;9.028;2023-03-02T06:17:37;-0.90;99.90
8947;DHT22;4508;48.790;9.028;2023-03-02T06:20:04;-0.90;99.90
8947;DHT22;4508;48.790;9.028;2023-03-02T06:22:34;-0.90;99.90
8947;DHT22;4508;48.790;9.028;2023-03-02T06:25:03;-0.90;99.90
8947;DHT22;4508;48.790;9.028;2023-03-02T06:27:31;-0.80;99.90
8947;DHT22;4508;48.790;9.028;2023-03-02T06:29:57;-0.80;99.90
8947;DHT22;4508;48.790;9.028;2023-03-02T06:32:24;-0.70;99.90
8947;DHT22;4508;48.790;9.028;2023-03-02T06:34:50;-0.70;99.90
8947;DHT22;4508;48.790;9.028;2023-03-02T06:37:17;-0.60;99.90
8947;DHT22;4508;48.790;9.028;2023-03-02T06:39:43;-0.70;99.90
8947;DHT22;4508;48.790;9.028;2023-03-02T06:42:10;-0.60;99.90
8947;DHT22;4508;48.790;9.028;2023-03-02T06:44:37;-0.60;99.90
8947;DHT22;4508;48.790;9.028;2023-03-02T06:47:04;-0.60;99.90
8947;DHT22;4508;48.790;9.028;2023-03-02T06:49:31;-0.60;99.90
8947;DHT22;4508;48.790;9.028;2023-03-02T06:51:57;-0.60;99.90
8947;DHT22;4508;48.790;9.028;2023-03-02T06:54:24;-0.60;99.90
8947;DHT22;4508;48.790;9.028;2023-03-02T06:56:50;-0.50;99.90
8947;DHT22;4508;48.790;9.028;2023-03-02T06:59:17;-0.60;99.90
8947;DHT22;4508;48.790;9.028;2023-03-02T07:01:44;-0.60;99.90
8947;DHT22;4508;48.790;9.028;2023-03-02T07:04:13;-0.60;99.90
8947;DHT22;4508;48.790;9.028;2023-03-02T07:06:40;-0.50;99.90
8947;DHT22;4508;48.790;9.028;2023-03-02T07:09:06;-0.50;99.90
8947;DHT22;4508;48.790;9.028;2023-03-02T07:11:33;-0.50;99.90
8947;DHT22;4508;48.790;9.028;2023-03-02T07:14:00;-0.60;99.90
8947;DHT22;4508;48.790;9.028;2023-03-02T07:16:26;-0.60;99.90
8947;DHT22;4508;48.790;9.028;2023-03-02T07:18:55;-0.50;99.90
8947;DHT22;4508;48.790;9.028;2023-03-02T07:21:22;-0.60;99.90
8947;DHT22;4508;48.790;9.028;2023-03-02T07:23:48;-0.60;99.90
8947;DHT22;4508;48.790;9.028;2023-03-02T07:26:15;-0.60;99.90
8947;DHT22;4508;48.790;9.028;2023-03-02T07:28:41;-0.50;99.90
8947;DHT22;4508;48.790;9.028;2023-03-02T07:31:08;-0.40;99.90
8947;DHT22;4508;48.790;9.028;2023-03-02T07:33:36;-0.40;99.90
8947;DHT22;4508;48.790;9.028;2023-03-02T07:36:05;-0.40;99.90
8947;DHT22;4508;48.790;9.028;2023-03-02T07:38:31;-0.40;99.90
8947;DHT22;4508;48.790;9.028;2023-03-02T07:40:58;-0.30;99.90
8947;DHT22;4508;48.790;9.028;2023-03-02T07:43:25;-0.40;99.90
8947;DHT22;4508;48.790;9.028;2023-03-02T07:45:53;-0.50;99.90
8947;DHT22;4508;48.790;9.028;2023-03-02T07:48:19;-0.40;99.90
8947;DHT22;4508;48.790;9.028;2023-03-02T07:50:47;-0.30;99.90
8947;DHT22;4508;48.790;9.028;2023-03-02T07:53:15;-0.30;99.90
8947;DHT22;4508;48.790;9.028;2023-03-02T07:55:41;-0.30;99.90
8947;DHT22;4508;48.790;9.028;2023-03-02T07:58:08;-0.30;99.90
8947;DHT22;4508;48.790;9.028;2023-03-02T08:00:34;-0.20;99.90
8947;DHT22;4508;48.790;9.028;2023-03-02T08:03:01;0.00;99.90
8947;DHT22;4508;48.790;9.028;2023-03-02T08:05:28;0.00;99.90
8947;DHT22;4508;48.790;9.028;2023-03-02T08:07:54;0.00;99.90
8947;DHT22;4508;48.790;9.028;2023-03-02T08:10:22;0.20;99.90
8947;DHT22;4508;48.790;9.028;2023-03-02T08:12:49;0.30;99.90
8947;DHT22;4508;48.790;9.028;2023-03-02T08:15:15;0.40;99.90
8947;DHT22;4508;48.790;9.028;2023-03-02T08:17:42;0.40;99.90
8947;DHT22;4508;48.790;9.028;2023-03-02T08:20:09;0.40;99.90
8947;DHT22;4508;48.790;9.028;2023-03-02T08:22:36;0.40;99.90
8947;DHT22;4508;48.790;9.028;2023-03-02T08:25:02;0.50;99.90
8947;DHT22;4508;48.790;9.028;2023-03-02T08:27:30;0.70;99.90
8947;DHT22;4508;48.790;9.028;2023-03-02T08:29:57;0.80;99.90
8947;DHT22;4508;48.790;9.028;2023-03-02T08:32:24;0.80;99.90
8947;DHT22;4508;48.790;9.028;2023-03-02T08:34:51;0.80;99.90
8947;DHT22;4508;48.790;9.028;2023-03-02T08:37:18;0.80;99.90
8947;DHT22;4508;48.790;9.028;2023-03-02T08:39:44;1.00;99.90
8947;DHT22;4508;48.790;9.028;2023-03-02T08:42:11;1.00;99.90
8947;DHT22;4508;48.790;9.028;2023-03-02T08:44:39;1.10;99.90
8947;DHT22;4508;48.790;9.028;2023-03-02T08:47:05;1.10;99.90
8947;DHT22;4508;48.790;9.028;2023-03-02T08:49:32;1.20;99.90
8947;DHT22;4508;48.790;9.028;2023-03-02T08:51:58;1.20;99.90
8947;DHT22;4508;48.790;9.028;2023-03-02T08:54:25;1.20;99.90
8947;DHT22;4508;48.790;9.028;2023-03-02T08:56:52;1.50;99.90
8947;DHT22;4508;48.790;9.028;2023-03-02T08:59:18;1.80;99.90
8947;DHT22;4508;48.790;9.028;2023-03-02T09:01:47;1.50;99.90
8947;DHT22;4508;48.790;9.028;2023-03-02T09:04:13;1.70;99.90
8947;DHT22;4508;48.790;9.028;2023-03-02T09:06:40;1.70;99.90
8947;DHT22;4508;48.790;9.028;2023-03-02T09:09:07;1.80;99.90
8947;DHT22;4508;48.790;9.028;2023-03-02T09:11:34;2.00;99.90
8947;DHT22;4508;48.790;9.028;2023-03-02T09:14:01;1.70;99.90
8947;DHT22;4508;48.790;9.028;2023-03-02T09:16:28;1.80;99.90
8947;DHT22;4508;48.790;9.028;2023-03-02T09:18:56;1.80;99.90
8947;DHT22;4508;48.790;9.028;2023-03-02T09:21:22;2.00;99.90
8947;DHT22;4508;48.790;9.028;2023-03-02T09:23:49;2.30;99.90
8947;DHT22;4508;48.790;9.028;2023-03-02T09:26:18;2.30;99.90
8947;DHT22;4508;48.790;9.028;2023-03-02T09:28:44;2.10;99.90
8947;DHT22;4508;48.790;9.028;2023-03-02T09:31:11;2.50;99.90
8947;DHT22;4508;48.790;9.028;2023-03-02T09:33:37;2.80;99.90
8947;DHT22;4508;48.790;9.028;2023-03-02T09:36:06;2.90;99.90
8947;DHT22;4508;48.790;9.028;2023-03-02T09:38:33;3.10;99.90
8947;DHT22;4508;48.790;9.028;2023-03-02T09:41:06;3.30;99.90
8947;DHT22;4508;48.790;9.028;2023-03-02T09:43:36;3.40;99.90
8947;DHT22;4508;48.790;9.028;2023-03-02T09:46:09;3.40;99.90
8947;DHT22;4508;48.790;9.028;2023-03-02T09:48:39;3.40;99.90
8947;DHT22;4508;48.790;9.028;2023-03-02T09:51:14;3.10;99.90
8947;DHT22;4508;48.790;9.028;2023-03-02T09:53:45;3.20;99.90
8947;DHT22;4508;48.790;9.028;2023-03-02T09:56:13;3.40;99.90
8947;DHT22;4508;48.790;9.028;2023-03-02T09:58:41;3.50;99.90
8947;DHT22;4508;48.790;9.028;2023-03-02T10:01:12;3.40;99.90
8947;DHT22;4508;48.790;9.028;2023-03-02T10:03:44;3.20;99.90
8947;DHT22;4508;48.790;9.028;2023-03-02T10:06:13;3.00;99.90
8947;DHT22;4508;48.790;9.028;2023-03-02T10:08:40;3.20;99.90
8947;DHT22;4508;48.790;9.028;2023-03-02T10:11:09;3.20;99.90
8947;DHT22;4508;48.790;9.028;2023-03-02T10:13:40;3.90;99.90
8947;DHT22;4508;48.790;9.028;2023-03-02T10:16:12;4.20;99.90
8947;DHT22;4508;48.790;9.028;2023-03-02T10:18:42;4.20;99.90
8947;DHT22;4508;48.790;9.028;2023-03-02T10:21:11;4.60;99.90
8947;DHT22;4508;48.790;9.028;2023-03-02T10:23:43;4.40;99.90
8947;DHT22;4508;48.790;9.028;2023-03-02T10:26:13;4.60;99.90
8947;DHT22;4508;48.790;9.028;2023-03-02T10:28:43;4.20;99.90
8947;DHT22;4508;48.790;9.028;2023-03-02T10:31:15;4.50;99.90
8947;DHT22;4508;48.790;9.028;2023-03-02T10:33:43;4.40;99.90
8947;DHT22;4508;48.790;9.028;2023-03-02T10:36:14;5.00;99.90
8947;DHT22;4508;48.790;9.028;2023-03-02T10:38:44;4.90;99.90
8947;DHT22;4508;48.790;9.028;2023-03-02T10:41:13;5.10;99.90
8947;DHT22;4508;48.790;9.028;2023-03-02T10:46:08;4.90;99.90
8947;DHT22;4508;48.790;9.028;2023-03-02T10:48:45;5.20;99.90
8947;DHT22;4508;48.790;9.028;2023-03-02T10:51:19;5.30;99.90
8947;DHT22;4508;48.790;9.028;2023-03-02T10:53:47;5.40;99.90
8947;DHT22;4508;48.790;9.028;2023-03-02T10:56:16;5.70;99.90
8947;DHT22;4508;48.790;9.028;2023-03-02T10:58:44;5.30;99.90
8947;DHT22;4508;48.790;9.028;2023-03-02T11:01:14;5.30;99.90
8947;DHT22;4508;48.790;9.028;2023-03-02T11:03:41;6.30;99.90
8947;DHT22;4508;48.790;9.028;2023-03-02T11:06:14;5.30;99.90
8947;DHT22;4508;48.790;9.028;2023-03-02T11:08:42;5.70;99.90
8947;DHT22;4508;48.790;9.028;2023-03-02T11:11:19;5.80;99.90
8947;DHT22;4508;48.790;9.028;2023-03-02T11:13:46;5.80;99.90
8947;DHT22;4508;48.790;9.028;2023-03-02T11:16:21;7.20;99.90
8947;DHT22;4508;48.790;9.028;2023-03-02T11:18:49;8.10;99.90
8947;DHT22;4508;48.790;9.028;2023-03-02T11:21:19;8.70;99.90
8947;DHT22;4508;48.790;9.028;2023-03-02T11:23:48;8.20;99.90
8947;DHT22;4508;48.790;9.028;2023-03-02T11:26:19;8.60;99.90
8947;DHT22;4508;48.790;9.028;2023-03-02T11:28:48;7.90;99.90
8947;DHT22;4508;48.790;9.028;2023-03-02T11:31:20;8.40;99.90
8947;DHT22;4508;48.790;9.028;2023-03-02T11:34:08;8.40;99.90
8947;DHT22;4508;48.790;9.028;2023-03-02T11:36:41;7.90;99.90
8947;DHT22;4508;48.790;9.028;2023-03-02T11:39:10;8.10;99.90
8947;DHT22;4508;48.790;9.028;2023-03-02T11:41:39;8.50;99.90
8947;DHT22;4508;48.790;9.028;2023-03-02T11:44:08;8.60;99.90
8947;DHT22;4508;48.790;9.028;2023-03-02T11:46:37;8.60;99.90
8947;DHT22;4508;48.790;9.028;2023-03-02T11:49:05;8.70;99.90
8947;DHT22;4508;48.790;9.028;2023-03-02T11:51:33;9.30;99.90
8947;DHT22;4508;48.790;9.028;2023-03-02T11:54:01;10.00;99.90
8947;DHT22;4508;48.790;9.028;2023-03-02T11:56:29;10.50;99.90
8947;DHT22;4508;48.790;9.028;2023-03-02T11:58:58;11.10;99.90
8947;DHT22;4508;48.790;9.028;2023-03-02T12:01:25;11.20;99.90
8947;DHT22;4508;48.790;9.028;2023-03-02T12:03:53;11.10;99.90
8947;DHT22;4508;48.790;9.028;2023-03-02T12:06:24;11.60;99.90
8947;DHT22;4508;48.790;9.028;2023-03-02T12:08:51;12.70;99.90
8947;DHT22;4508;48.790;9.028;2023-03-02T12:11:28;12.70;99.90
8947;DHT22;4508;48.790;9.028;2023-03-02T12:14:00;12.40;99.90
8947;DHT22;4508;48.790;9.028;2023-03-02T12:16:32;13.00;99.90
8947;DHT22;4508;48.790;9.028;2023-03-02T12:19:09;12.80;99.90
8947;DHT22;4508;48.790;9.028;2023-03-02T12:21:38;12.90;99.90
8947;DHT22;4508;48.790;9.028;2023-03-02T12:24:04;13.30;99.90
8947;DHT22;4508;48.790;9.028;2023-03-02T12:26:34;13.80;99.90
8947;DHT22;4508;48.790;9.028;2023-03-02T12:29:03;13.90;99.90
8947;DHT22;4508;48.790;9.028;2023-03-02T12:31:41;13.40;99.90
8947;DHT22;4508;48.790;9.028;2023-03-02T12:36:53;13.20;99.90
8947;DHT22;4508;48.790;9.028;2023-03-02T12:39:24;13.40;99.90
8947;DHT22;4508;48.790;9.028;2023-03-02T12:41:59;12.90;99.90
8947;DHT22;4508;48.790;9.028;2023-03-02T12:44:34;12.40;99.90
8947;DHT22;4508;48.790;9.028;2023-03-02T12:47:11;12.80;99.90
8947;DHT22;4508;48.790;9.028;2023-03-02T12:49:43;12.80;99.90
8947;DHT22;4508;48.790;9.028;2023-03-02T12:52:19;13.70;99.90
8947;DHT22;4508;48.790;9.028;2023-03-02T12:54:45;13.60;99.90
8947;DHT22;4508;48.790;9.028;2023-03-02T12:57:13;13.30;99.90
8947;DHT22;4508;48.790;9.028;2023-03-02T12:59:41;13.20;99.90
8947;DHT22;4508;48.790;9.028;2023-03-02T13:02:11;13.40;99.90
8947;DHT22;4508;48.790;9.028;2023-03-02T13:04:39;13.90;99.90
8947;DHT22;4508;48.790;9.028;2023-03-02T13:07:12;13.30;99.90
8947;DHT22;4508;48.790;9.028;2023-03-02T13:09:39;14.00;99.90
8947;DHT22;4508;48.790;9.028;2023-03-02T13:12:10;14.20;99.90
8947;DHT22;4508;48.790;9.028;2023-03-02T13:14:38;13.00;99.90
8947;DHT22;4508;48.790;9.028;2023-03-02T13:17:17;11.80;99.90
8947;DHT22;4508;48.790;9.028;2023-03-02T13:19:45;11.70;99.90
8947;DHT22;4508;48.790;9.028;2023-03-02T13:22:11;12.40;99.90
8947;DHT22;4508;48.790;9.028;2023-03-02T13:24:43;11.80;99.90
8947;DHT22;4508;48.790;9.028;2023-03-02T13:27:13;12.70;99.90
8947;DHT22;4508;48.790;9.028;2023-03-02T13:29:40;12.50;99.90
8947;DHT22;4508;48.790;9.028;2023-03-02T13:32:15;12.00;99.90
8947;DHT22;4508;48.790;9.028;2023-03-02T13:34:46;11.80;99.90
8947;DHT22;4508;48.790;9.028;2023-03-02T13:37:18;10.90;99.90
8947;DHT22;4508;48.790;9.028;2023-03-02T13:39:52;11.60;99.90
8947;DHT22;4508;48.790;9.028;2023-03-02T13:42:23;12.10;99.90
8947;DHT22;4508;48.790;9.028;2023-03-02T13:44:50;12.90;99.90
8947;DHT22;4508;48.790;9.028;2023-03-02T13:47:21;12.30;99.90
8947;DHT22;4508;48.790;9.028;2023-03-02T13:49:48;12.60;99.90
8947;DHT22;4508;48.790;9.028;2023-03-02T13:52:15;11.50;99.90
8947;DHT22;4508;48.790;9.028;2023-03-02T13:54:44;11.70;99.90
8947;DHT22;4508;48.790;9.028;2023-03-02T13:57:13;12.00;99.90
8947;DHT22;4508;48.790;9.028;2023-03-02T13:59:40;12.70;99.90
8947;DHT22;4508;48.790;9.028;2023-03-02T14:02:10;12.40;99.90
8947;DHT22;4508;48.790;9.028;2023-03-02T14:04:45;12.50;99.90
8947;DHT22;4508;48.790;9.028;2023-03-02T14:07:12;12.20;99.90
8947;DHT22;4508;48.790;9.028;2023-03-02T14:09:38;13.20;99.90
8947;DHT22;4508;48.790;9.028;2023-03-02T14:12:05;13.20;99.90
8947;DHT22;4508;48.790;9.028;2023-03-02T14:14:32;13.20;99.90
8947;DHT22;4508;48.790;9.028;2023-03-02T14:17:00;11.80;99.90
8947;DHT22;4508;48.790;9.028;2023-03-02T14:19:27;11.20;99.90
8947;DHT22;4508;48.790;9.028;2023-03-02T14:21:55;11.80;99.90
8947;DHT22;4508;48.790;9.028;2023-03-02T14:24:21;11.50;99.90
8947;DHT22;4508;48.790;9.028;2023-03-02T14:26:48;11.20;99.90
8947;DHT22;4508;48.790;9.028;2023-03-02T14:29:18;10.90;99.90
8947;DHT22;4508;48.790;9.028;2023-03-02T14:31:46;10.90;99.90
8947;DHT22;4508;48.790;9.028;2023-03-02T14:34:13;11.20;99.90
8947;DHT22;4508;48.790;9.028;2023-03-02T14:36:40;10.80;99.90
8947;DHT22;4508;48.790;9.028;2023-03-02T14:39:13;11.60;99.90
8947;DHT22;4508;48.790;9.028;2023-03-02T14:41:45;11.40;99.90
8947;DHT22;4508;48.790;9.028;2023-03-02T14:44:11;12.30;99.90
8947;DHT22;4508;48.790;9.028;2023-03-02T14:46:38;12.40;99.90
8947;DHT22;4508;48.790;9.028;2023-03-02T14:49:04;11.90;99.90
8947;DHT22;4508;48.790;9.028;2023-03-02T14:51:32;11.90;99.90
8947;DHT22;4508;48.790;9.028;2023-03-02T14:54:00;12.50;99.90
8947;DHT22;4508;48.790;9.028;2023-03-02T14:56:30;12.00;99.90
8947;DHT22;4508;48.790;9.028;2023-03-02T14:58:56;12.50;99.90
8947;DHT22;4508;48.790;9.028;2023-03-02T15:01:24;12.40;99.90
8947;DHT22;4508;48.790;9.028;2023-03-02T15:03:50;12.10;99.90
8947;DHT22;4508;48.790;9.028;2023-03-02T15:06:21;11.50;99.90
8947;DHT22;4508;48.790;9.028;2023-03-02T15:08:49;10.90;99.90
8947;DHT22;4508;48.790;9.028;2023-03-02T15:11:16;10.70;99.90
8947;DHT22;4508;48.790;9.028;2023-03-02T15:13:43;11.40;99.90
8947;DHT22;4508;48.790;9.028;2023-03-02T15:16:10;11.00;99.90
8947;DHT22;4508;48.790;9.028;2023-03-02T15:18:37;11.40;99.90
8947;DHT22;4508;48.790;9.028;2023-03-02T15:21:03;11.10;99.90
8947;DHT22;4508;48.790;9.028;2023-03-02T15:23:30;11.20;99.90
8947;DHT22;4508;48.790;9.028;2023-03-02T15:25:57;11.10;99.90
8947;DHT22;4508;48.790;9.028;2023-03-02T15:28:24;10.80;99.90
8947;DHT22;4508;48.790;9.028;2023-03-02T15:30:52;11.20;99.90
8947;DHT22;4508;48.790;9.028;2023-03-02T15:33:19;11.40;99.90
8947;DHT22;4508;48.790;9.028;2023-03-02T15:35:49;11.40;99.90
8947;DHT22;4508;48.790;9.028;2023-03-02T15:38:16;11.60;99.90
8947;DHT22;4508;48.790;9.028;2023-03-02T15:40:42;11.60;99.90
8947;DHT22;4508;48.790;9.028;2023-03-02T15:43:09;11.20;99.90
8947;DHT22;4508;48.790;9.028;2023-03-02T15:45:35;11.20;99.90
8947;DHT22;4508;48.790;9.028;2023-03-02T15:48:03;11.10;99.90
8947;DHT22;4508;48.790;9.028;2023-03-02T15:50:30;11.20;99.90
8947;DHT22;4508;48.790;9.028;2023-03-02T15:52:56;11.20;99.90
8947;DHT22;4508;48.790;9.028;2023-03-02T15:55:23;11.00;99.90
8947;DHT22;4508;48.790;9.028;2023-03-02T15:57:50;10.70;99.90
8947;DHT22;4508;48.790;9.028;2023-03-02T16:00:17;10.30;99.90
8947;DHT22;4508;48.790;9.028;2023-03-02T16:02:43;9.90;99.90
8947;DHT22;4508;48.790;9.028;2023-03-02T16:05:11;9.80;99.90
8947;DHT22;4508;48.790;9.028;2023-03-02T16:07:38;10.30;99.90
8947;DHT22;4508;48.790;9.028;2023-03-02T16:10:05;10.40;99.90
8947;DHT22;4508;48.790;9.028;2023-03-02T16:12:31;10.30;99.90
8947;DHT22;4508;48.790;9.028;2023-03-02T16:14:58;9.90;99.90